Time;durP1;ratioP1;P1;durP2;ratioP2;P2;SDS_P1;SDS_P2;PMS_P1;PMS_P2;Temp;Humidity;BMP_temperature;BMP_pressure;BME280_temperature;BME280_humidity;BME280_pressure;Samples;Min_cycle;Max_cycle;Signal;HPM_P1;HPM_P2
2022/09/13 00:02:14;;;;;;;8.20;2.05;;;;;;;17.36;70.07;100887.03;6294143;28;20262;-77
2022/09/13 00:05:37;;;;;;;1.95;1.65;;;;;;;17.48;69.57;100872.81;6297839;28;20218;-78
2022/09/13 00:09:00;;;;;;;2.10;1.98;;;;;;;17.41;69.63;100873.72;6299587;28;20245;-78
2022/09/13 00:12:21;;;;;;;3.72;2.35;;;;;;;17.24;70.83;100862.06;6299559;28;20325;-78
2022/09/13 00:15:43;;;;;;;4.60;2.08;;;;;;;17.36;70.08;100854.31;6302436;28;20487;-78
2022/09/13 00:19:06;;;;;;;2.60;2.10;;;;;;;17.26;70.38;100857.28;6303289;28;20517;-76
2022/09/13 00:22:27;;;;;;;4.78;2.55;;;;;;;17.25;70.60;100858.31;6304659;28;20573;-77
2022/09/13 00:25:48;;;;;;;2.15;1.98;;;;;;;17.18;71.00;100853.75;6294842;28;20271;-78
2022/09/13 00:29:09;;;;;;;2.75;2.05;;;;;;;17.12;70.75;100839.00;6296623;28;20227;-77
2022/09/13 00:32:30;;;;;;;3.85;2.58;;;;;;;17.22;70.39;100844.19;6300181;28;20230;-76
2022/09/13 00:35:53;;;;;;;2.78;2.30;;;;;;;17.34;70.44;100838.16;6307024;28;20304;-78
2022/09/13 00:39:14;;;;;;;2.58;2.38;;;;;;;17.21;71.24;100837.91;6303585;28;20293;-76
2022/09/13 00:42:36;;;;;;;2.65;2.08;;;;;;;17.19;71.84;100837.22;6303718;28;20321;-77
2022/09/13 00:45:57;;;;;;;4.63;2.25;;;;;;;17.23;72.89;100835.84;6299118;28;20656;-76
2022/09/13 00:49:22;;;;;;;2.30;2.15;;;;;;;16.99;74.45;100836.00;6300472;28;20222;-76
2022/09/13 00:52:50;;;;;;;2.67;2.47;;;;;;;16.75;76.11;100820.63;6302144;28;20222;-76
2022/09/13 00:56:15;;;;;;;2.13;1.88;;;;;;;16.61;77.59;100813.19;6293623;28;20242;-76
2022/09/13 00:59:42;;;;;;;2.03;1.92;;;;;;;16.52;78.10;100818.88;6286403;28;20251;-77
2022/09/13 01:03:07;;;;;;;3.28;2.33;;;;;;;16.61;77.66;100824.09;6290522;28;20789;-76
2022/09/13 01:06:31;;;;;;;1.98;1.88;;;;;;;16.61;78.23;100813.19;6290411;28;20314;-76
2022/09/13 01:09:54;;;;;;;2.30;1.98;;;;;;;16.60;78.85;100813.38;6298879;28;20231;-75
2022/09/13 01:13:18;;;;;;;1.70;1.47;;;;;;;16.53;78.52;100820.53;6270113;28;20234;-77
2022/09/13 01:16:39;;;;;;;2.88;2.60;;;;;;;16.79;78.18;100821.13;6288005;28;20226;-77
2022/09/13 01:20:03;;;;;;;2.85;2.15;;;;;;;16.78;79.01;100822.13;6293700;28;21112;-76
2022/09/13 01:23:50;;;;;;;3.25;2.75;;;;;;;16.70;79.15;100819.47;6293059;28;20816;-78
2022/09/13 01:27:24;;;;;;;2.70;2.35;;;;;;;16.58;80.76;100821.69;6290615;28;20226;-77
2022/09/13 01:30:55;;;;;;;2.47;2.28;;;;;;;16.57;81.23;100827.34;6294196;28;20235;-78
2022/09/13 01:34:35;;;;;;;4.57;2.33;;;;;;;16.63;78.75;100813.88;6284293;27;20304;-78
2022/09/13 01:38:06;;;;;;;7.67;2.43;;;;;;;16.63;79.09;100797.53;6284918;28;20298;-77
2022/09/13 01:41:44;;;;;;;4.13;2.03;;;;;;;16.60;79.20;100788.88;6288182;28;20222;-77
2022/09/13 01:45:17;;;;;;;2.88;1.85;;;;;;;16.72;79.54;100771.13;6288871;28;20321;-77
2022/09/13 01:48:52;;;;;;;2.30;2.10;;;;;;;16.90;78.93;100765.41;6290149;28;20230;-77
2022/09/13 01:52:30;;;;;;;3.20;2.00;;;;;;;17.15;77.79;100756.03;6285937;28;20730;-77
2022/09/13 01:55:58;;;;;;;2.60;2.40;;;;;;;17.19;78.35;100741.88;6265909;27;20234;-77
2022/09/13 01:59:24;;;;;;;2.85;2.65;;;;;;;16.89;78.16;100750.09;6293660;28;20226;-77
2022/09/13 02:02:50;;;;;;;4.22;2.55;;;;;;;16.93;78.95;100743.25;6282685;28;20227;-77
2022/09/13 02:06:18;;;;;;;4.70;2.85;;;;;;;17.02;79.00;100739.47;6284601;28;20230;-77
2022/09/13 02:09:43;;;;;;;2.28;2.08;;;;;;;17.11;78.83;100743.81;6289554;28;20547;-76
2022/09/13 02:13:11;;;;;;;3.25;2.42;;;;;;;17.03;79.14;100736.53;6289490;28;20230;-76
2022/09/13 02:16:37;;;;;;;3.15;2.65;;;;;;;17.01;79.19;100735.88;6292286;28;20231;-78
2022/09/13 02:20:01;;;;;;;15.57;2.55;;;;;;;16.85;79.70;100746.91;6281985;28;20227;-77
2022/09/13 02:23:30;;;;;;;3.03;2.35;;;;;;;16.64;80.77;100749.41;6265186;28;20246;-77
2022/09/13 02:26:55;;;;;;;2.78;2.58;;;;;;;16.72;80.75;100738.47;6288767;28;20223;-77
2022/09/13 02:30:16;;;;;;;5.80;2.70;;;;;;;16.77;80.48;100747.78;6284072;28;20323;-77
2022/09/13 02:33:41;;;;;;;3.05;2.80;;;;;;;16.89;80.06;100734.59;6284699;28;20244;-77
2022/09/13 02:37:04;;;;;;;3.58;2.72;;;;;;;16.92;79.76;100733.41;6293087;28;21012;-77
2022/09/13 02:40:34;;;;;;;2.60;2.17;;;;;;;16.83;80.13;100723.59;6286785;28;20231;-78
2022/09/13 02:44:03;;;;;;;2.97;2.63;;;;;;;16.78;80.56;100732.28;6286944;28;20251;-78
2022/09/13 02:47:44;;;;;;;5.88;3.88;;;;;;;16.78;80.57;100726.84;6286367;28;20231;-77
2022/09/13 02:51:15;;;;;;;2.83;2.40;;;;;;;16.63;81.45;100715.03;6286969;28;20568;-77
2022/09/13 02:54:42;;;;;;;3.38;3.08;;;;;;;16.69;81.31;100714.28;6285472;28;20234;-77
2022/09/13 02:58:11;;;;;;;4.80;3.53;;;;;;;16.58;81.56;100723.72;6291870;28;20238;-78
2022/09/13 03:01:35;;;;;;;4.45;3.20;;;;;;;16.57;81.68;100715.72;6287669;28;20292;-77
2022/09/13 03:04:56;;;;;;;4.13;3.38;;;;;;;16.75;80.96;100703.53;6292458;28;20265;-78
2022/09/13 03:08:18;;;;;;;6.75;2.47;;;;;;;16.87;80.66;100709.44;6288311;28;20234;-78
2022/09/13 03:11:56;;;;;;;3.72;3.35;;;;;;;16.89;80.09;100701.94;6284580;28;20227;-78
2022/09/13 03:15:32;;;;;;;3.30;2.85;;;;;;;16.72;81.16;100695.75;6288143;28;20226;-77
2022/09/13 03:19:08;;;;;;;3.05;2.47;;;;;;;16.74;80.68;100698.28;6293331;28;20250;-77
2022/09/13 03:22:47;;;;;;;3.75;3.08;;;;;;;16.87;80.67;100692.25;6280603;28;20218;-76
2022/09/13 03:26:26;;;;;;;6.00;3.77;;;;;;;16.72;81.11;100679.41;6291439;28;20668;-77
2022/09/13 03:29:54;;;;;;;4.17;2.93;;;;;;;16.81;80.96;100682.06;6284683;28;21024;-76
2022/09/13 03:33:25;;;;;;;6.63;4.03;;;;;;;16.68;81.36;100677.22;6275060;28;21140;-77
2022/09/13 03:36:51;;;;;;;8.20;3.67;;;;;;;16.66;81.16;100673.84;6288808;28;20379;-77
2022/09/13 03:40:15;;;;;;;3.70;2.83;;;;;;;16.65;81.53;100672.13;6286193;28;20318;-76
2022/09/13 03:43:40;;;;;;;3.50;3.20;;;;;;;16.68;81.51;100667.19;6287013;28;20238;-77
2022/09/13 03:47:05;;;;;;;5.90;2.97;;;;;;;16.64;82.46;100665.00;6287187;28;20231;-77
2022/09/13 03:50:27;;;;;;;4.97;4.27;;;;;;;16.77;81.89;100662.53;6284686;28;20231;-77
2022/09/13 03:53:55;;;;;;;4.57;3.63;;;;;;;16.67;81.94;100660.03;6287689;28;20231;-76
2022/09/13 03:57:19;;;;;;;8.20;3.97;;;;;;;16.69;82.22;100659.84;6288301;28;20222;-78
2022/09/13 04:00:41;;;;;;;5.43;3.55;;;;;;;16.79;81.39;100653.13;6287373;28;20293;-77
2022/09/13 04:04:02;;;;;;;6.70;4.20;;;;;;;16.75;81.76;100661.88;6287418;28;20234;-77
2022/09/13 04:07:25;;;;;;;6.10;5.50;;;;;;;16.75;81.77;100659.97;6290033;28;20227;-78
2022/09/13 04:10:50;;;;;;;7.95;5.22;;;;;;;16.77;82.15;100668.81;6288641;28;20586;-78
2022/09/13 04:14:11;;;;;;;6.55;4.70;;;;;;;16.78;82.30;100656.91;6290966;28;20526;-78
2022/09/13 04:17:35;;;;;;;7.90;5.22;;;;;;;16.82;82.01;100660.09;6286143;28;20230;-78
2022/09/13 04:20:57;;;;;;;5.53;4.03;;;;;;;16.84;81.83;100674.38;6288866;28;20255;-78
2022/09/13 04:24:20;;;;;;;7.30;5.75;;;;;;;16.80;82.11;100664.88;6287663;28;20532;-79
2022/09/13 04:27:41;;;;;;;6.30;5.57;;;;;;;16.79;82.79;100668.66;6285288;28;20642;-79
2022/09/13 04:31:02;;;;;;;9.43;5.47;;;;;;;16.81;82.60;100673.91;6285642;28;20226;-78
2022/09/13 04:34:23;;;;;;;5.47;4.43;;;;;;;16.83;83.03;100671.84;6290025;28;20317;-78
2022/09/13 04:37:44;;;;;;;7.97;5.38;;;;;;;16.71;84.04;100676.84;6285850;28;20251;-77
2022/09/13 04:41:06;;;;;;;5.80;4.88;;;;;;;16.66;84.62;100676.56;6283378;28;20238;-77
2022/09/13 04:44:28;;;;;;;10.77;5.45;;;;;;;16.46;85.55;100667.97;6283896;28;20227;-78
2022/09/13 04:47:52;;;;;;;8.90;6.60;;;;;;;16.35;86.21;100672.97;6286919;28;22225;-78
2022/09/13 04:51:13;;;;;;;10.38;6.70;;;;;;;16.23;87.10;100675.22;6293854;28;20310;-79
2022/09/13 04:54:34;;;;;;;9.57;7.20;;;;;;;16.33;87.03;100675.88;6293061;28;20330;-77
2022/09/13 04:57:57;;;;;;;7.88;6.22;;;;;;;16.38;86.62;100676.19;6289934;28;20226;-78
2022/09/13 05:01:18;;;;;;;6.70;5.23;;;;;;;16.21;87.82;100671.84;6283590;28;20752;-79
2022/09/13 05:04:39;;;;;;;10.47;6.37;;;;;;;16.49;87.45;100677.66;6290081;28;20318;-80
2022/09/13 05:08:01;;;;;;;11.87;7.77;;;;;;;16.39;87.30;100682.47;6294911;28;20223;-79
2022/09/13 05:11:22;;;;;;;5.97;5.37;;;;;;;16.22;88.77;100678.13;6282910;28;20721;-77
2022/09/13 05:14:45;;;;;;;8.87;6.87;;;;;;;16.24;88.86;100676.09;6278383;28;20242;-77
2022/09/13 05:18:06;;;;;;;8.67;5.17;;;;;;;16.31;89.08;100686.06;6293773;28;20242;-77
2022/09/13 05:21:27;;;;;;;10.00;6.70;;;;;;;16.37;88.88;100695.41;6295356;28;20223;-76
2022/09/13 05:24:48;;;;;;;7.03;5.10;;;;;;;16.54;87.89;100691.63;6292534;28;20230;-77
2022/09/13 05:28:09;;;;;;;11.47;7.37;;;;;;;16.37;89.02;100688.09;6291047;28;20616;-76
2022/09/13 05:31:33;;;;;;;9.37;6.97;;;;;;;16.44;89.09;100693.66;6291286;28;20234;-77
2022/09/13 05:34:54;;;;;;;7.70;6.90;;;;;;;16.40;89.08;100701.34;6272347;28;20219;-77
2022/09/13 05:38:15;;;;;;;11.35;7.80;;;;;;;16.45;88.43;100707.09;6302084;28;20231;-79
2022/09/13 05:41:36;;;;;;;9.73;6.82;;;;;;;16.60;87.50;100701.78;6286346;28;20234;-77
2022/09/13 05:44:57;;;;;;;10.43;6.65;;;;;;;16.55;88.17;100705.03;6296164;28;20245;-77
2022/09/13 05:48:20;;;;;;;8.90;6.55;;;;;;;16.51;88.19;100694.69;6298102;28;20256;-78
2022/09/13 05:51:41;;;;;;;7.25;5.97;;;;;;;16.58;87.42;100684.78;6291332;28;20258;-78
2022/09/13 05:55:02;;;;;;;7.65;6.65;;;;;;;16.56;88.31;100678.69;6290674;28;20242;-77
2022/09/13 05:58:22;;;;;;;10.00;7.43;;;;;;;16.62;87.33;100678.81;6293231;28;20541;-77
2022/09/13 06:01:44;;;;;;;8.47;5.63;;;;;;;16.85;87.01;100691.56;6294616;28;20260;-76
2022/09/13 06:05:06;;;;;;;10.33;6.33;;;;;;;17.00;86.62;100687.03;6293970;28;20289;-76
2022/09/13 06:08:32;;;;;;;10.68;7.43;;;;;;;16.68;87.85;100688.13;6293448;28;20230;-77
2022/09/13 06:11:52;;;;;;;10.80;7.43;;;;;;;16.62;87.96;100678.81;6289529;28;21054;-78
2022/09/13 06:15:14;;;;;;;8.30;7.00;;;;;;;16.74;87.44;100681.94;6294930;28;20250;-78
2022/09/13 06:18:35;;;;;;;8.83;6.93;;;;;;;16.93;87.25;100691.50;6292001;28;20254;-78
2022/09/13 06:21:58;;;;;;;6.13;5.53;;;;;;;16.90;87.42;100687.28;6289530;28;20561;-78
2022/09/13 06:25:19;;;;;;;9.97;7.07;;;;;;;16.71;88.33;100698.63;6294285;28;20223;-77
2022/09/13 06:28:40;;;;;;;9.05;6.72;;;;;;;17.04;87.21;100697.41;6296918;28;20234;-79
2022/09/13 06:32:01;;;;;;;8.35;7.10;;;;;;;16.96;87.56;100705.59;6296587;28;20215;-77
2022/09/13 06:35:22;;;;;;;8.23;5.60;;;;;;;17.15;87.09;100707.00;6292637;28;20230;-80
2022/09/13 06:38:45;;;;;;;7.53;5.93;;;;;;;17.15;86.93;100699.66;6297649;27;20227;-79
2022/09/13 06:42:07;;;;;;;6.00;4.68;;;;;;;17.42;85.86;100693.63;6304898;28;20897;-80
2022/09/13 06:45:33;;;;;;;14.82;6.55;;;;;;;17.40;85.78;100692.97;6298002;28;20608;-80
2022/09/13 06:48:56;;;;;;;11.18;6.35;;;;;;;17.60;85.30;100685.16;6307152;28;20310;-81
2022/09/13 06:52:17;;;;;;;9.30;5.63;;;;;;;17.90;84.28;100689.59;6304346;28;20235;-81
2022/09/13 06:55:39;;;;;;;6.57;4.90;;;;;;;17.93;83.88;100702.88;6283229;28;20226;-81
2022/09/13 06:59:03;;;;;;;9.18;7.22;;;;;;;17.74;83.81;100706.13;6302371;28;20219;-80
2022/09/13 07:02:25;;;;;;;10.02;6.18;;;;;;;17.64;85.12;100699.25;6300110;28;20518;-80
2022/09/13 07:05:46;;;;;;;10.60;6.30;;;;;;;17.60;84.65;100698.78;6301517;28;20218;-79
2022/09/13 07:09:10;;;;;;;7.55;5.85;;;;;;;17.72;84.24;100694.56;6297814;28;20313;-79
2022/09/13 07:12:33;;;;;;;9.50;5.32;;;;;;;17.75;84.55;100699.66;6300440;28;20234;-78
2022/09/13 07:15:54;;;;;;;8.02;5.75;;;;;;;17.96;84.00;100704.38;6304779;28;20222;-79
2022/09/13 07:19:17;;;;;;;6.05;5.00;;;;;;;18.02;83.16;100712.63;6304793;28;20234;-78
2022/09/13 07:22:37;;;;;;;4.43;4.13;;;;;;;17.87;83.47;100705.50;6302104;28;20316;-77
2022/09/13 07:26:03;;;;;;;5.63;4.22;;;;;;;18.23;82.57;100715.44;6296845;28;20849;-77
2022/09/13 07:29:25;;;;;;;6.43;4.47;;;;;;;18.61;81.28;100724.38;6294390;28;20558;-77
2022/09/13 07:32:46;;;;;;;4.70;4.05;;;;;;;18.42;81.74;100726.84;6296853;28;20235;-79
2022/09/13 07:36:08;;;;;;;5.97;4.40;;;;;;;18.44;81.26;100724.78;6299526;28;20247;-79
2022/09/13 07:39:29;;;;;;;7.25;5.05;;;;;;;18.22;82.48;100719.22;6293638;28;20215;-79
2022/09/13 07:42:50;;;;;;;7.28;4.90;;;;;;;17.86;83.68;100718.28;6287636;28;20227;-78
2022/09/13 07:46:14;;;;;;;7.43;4.78;;;;;;;18.50;82.04;100727.63;6297395;28;20600;-78
2022/09/13 07:49:35;;;;;;;7.47;3.85;;;;;;;18.68;80.89;100725.31;6292612;28;20234;-78
2022/09/13 07:52:56;;;;;;;6.10;4.10;;;;;;;18.66;80.26;100730.13;6294709;28;20789;-79
2022/09/13 07:56:19;;;;;;;4.07;3.78;;;;;;;18.85;79.97;100721.31;6297274;28;20226;-79
2022/09/13 07:59:40;;;;;;;7.60;3.58;;;;;;;18.82;78.97;100742.69;6286265;28;20522;-78
2022/09/13 08:03:02;;;;;;;4.60;3.70;;;;;;;18.73;79.86;100733.75;6296289;28;20222;-78
2022/09/13 08:06:26;;;;;;;6.00;4.07;;;;;;;18.54;80.24;100745.31;6298118;28;20314;-78
2022/09/13 08:09:46;;;;;;;10.13;2.75;;;;;;;18.94;78.87;100736.53;6291808;28;20657;-78
2022/09/13 08:13:07;;;;;;;5.85;3.65;;;;;;;18.90;78.94;100739.84;6292512;28;20238;-78
2022/09/13 08:16:29;;;;;;;4.60;3.05;;;;;;;19.39;77.96;100750.88;6291927;28;20813;-79
2022/09/13 08:19:52;;;;;;;3.25;2.72;;;;;;;19.35;77.05;100749.59;6296682;28;20787;-79
2022/09/13 08:23:14;;;;;;;3.38;1.83;;;;;;;19.08;77.18;100738.38;6291505;28;20836;-79
2022/09/13 08:26:36;;;;;;;2.55;1.60;;;;;;;18.65;77.97;100744.78;6288547;28;20222;-78
2022/09/13 08:29:57;;;;;;;1.60;1.48;;;;;;;18.73;78.02;100747.41;6296505;28;20568;-78
2022/09/13 08:33:18;;;;;;;4.18;1.92;;;;;;;18.86;77.66;100744.84;6285983;28;20235;-78
2022/09/13 08:36:40;;;;;;;1.67;1.52;;;;;;;18.82;77.53;100750.88;6297360;28;20218;-80
2022/09/13 08:40:02;;;;;;;1.33;1.17;;;;;;;18.90;77.44;100740.69;6291455;28;20667;-79
2022/09/13 08:43:40;;;;;;;4.28;1.98;;;;;;;19.11;76.09;100742.56;6291967;28;20227;-78
2022/09/13 08:47:19;;;;;;;2.00;1.02;;;;;;;19.23;74.55;100737.47;6291511;28;20239;-80
2022/09/13 08:50:43;;;;;;;2.17;1.23;;;;;;;19.07;74.05;100741.28;6296773;28;20226;-81
2022/09/13 08:54:08;;;;;;;3.00;1.38;;;;;;;19.13;73.72;100741.34;6284505;28;20222;-81
2022/09/13 08:57:39;;;;;;;1.67;1.58;;;;;;;19.34;73.09;100742.44;6295705;28;20253;-79
2022/09/13 09:01:06;;;;;;;1.02;0.65;;;;;;;19.36;71.90;100743.91;6295897;28;20600;-78
2022/09/13 09:04:37;;;;;;;3.13;0.85;;;;;;;19.47;71.58;100737.06;6296586;28;20231;-79
2022/09/13 09:08:02;;;;;;;1.40;1.08;;;;;;;19.48;70.56;100749.72;6295234;28;20244;-79
2022/09/13 09:11:34;;;;;;;1.58;0.60;;;;;;;19.58;68.93;100740.13;6287398;28;20250;-77
2022/09/13 09:15:02;;;;;;;2.65;0.52;;;;;;;20.04;66.10;100750.56;6293372;28;20230;-77
2022/09/13 09:18:28;;;;;;;2.05;0.43;;;;;;;20.20;65.80;100745.66;6300078;28;20238;-78
2022/09/13 09:21:51;;;;;;;3.35;1.02;;;;;;;19.89;66.10;100748.78;6285580;28;20246;-79
2022/09/13 09:25:13;;;;;;;0.52;0.52;;;;;;;19.80;65.79;100746.38;6287780;28;20246;-78
2022/09/13 09:28:35;;;;;;;4.07;1.25;;;;;;;19.81;65.58;100750.84;6289464;28;20230;-78
2022/09/13 09:32:15;;;;;;;2.33;1.00;;;;;;;19.83;63.21;100754.22;6291784;28;20727;-78
2022/09/13 09:35:46;;;;;;;1.35;0.80;;;;;;;19.78;61.53;100757.53;6292248;28;21191;-79
2022/09/13 09:39:12;;;;;;;4.38;1.70;;;;;;;19.75;61.43;100752.47;6301023;28;20238;-80
2022/09/13 09:42:41;;;;;;;2.38;1.50;;;;;;;20.25;59.98;100748.66;6303411;28;20849;-79
2022/09/13 09:46:06;;;;;;;0.60;0.45;;;;;;;20.79;61.04;100750.56;6304396;28;20221;-78
2022/09/13 09:53:25;;;;;;;1.33;0.80;;;;;;;21.03;57.94;100755.50;6276010;28;20226;-80
2022/09/13 09:56:53;;;;;;;1.85;0.93;;;;;;;21.24;56.69;100749.88;6284208;28;20226;-78
2022/09/13 10:00:16;;;;;;;3.78;0.80;;;;;;;21.26;55.46;100743.13;6294224;28;20245;-78
2022/09/13 10:03:40;;;;;;;0.95;0.35;;;;;;;21.41;54.58;100742.94;6296427;28;20609;-80
2022/09/13 10:07:24;;;;;;;1.20;0.88;;;;;;;21.55;51.10;100744.63;6289557;28;20223;-78
2022/09/13 10:10:53;;;;;;;1.48;0.73;;;;;;;21.22;51.05;100744.59;6282401;28;20234;-78
2022/09/13 10:14:32;;;;;;;1.20;0.82;;;;;;;21.76;51.26;100749.09;6300560;28;20234;-78
2022/09/13 10:18:05;;;;;;;1.35;0.88;;;;;;;21.99;51.04;100742.09;6295748;28;20243;-78
2022/09/13 10:21:27;;;;;;;1.13;0.80;;;;;;;22.37;49.77;100741.38;6298639;28;20534;-79
2022/09/13 10:24:49;;;;;;;0.90;0.77;;;;;;;22.31;48.72;100742.25;6307507;28;20718;-78
2022/09/13 10:28:14;;;;;;;5.30;1.05;;;;;;;22.47;48.03;100734.38;6303890;28;20562;-80
2022/09/13 10:31:37;;;;;;;5.93;1.00;;;;;;;22.77;47.39;100742.97;6306504;28;20264;-79
2022/09/13 10:35:09;;;;;;;2.88;1.35;;;;;;;22.76;46.36;100741.28;6305266;28;20239;-80
2022/09/13 10:38:34;;;;;;;1.15;0.60;;;;;;;22.74;47.32;100738.72;6302919;28;20218;-78
2022/09/13 10:41:58;;;;;;;7.18;2.35;;;;;;;23.36;45.67;100745.41;6302561;28;20238;-79
2022/09/13 10:45:23;;;;;;;5.43;0.65;;;;;;;22.32;46.77;100752.19;6301694;28;20865;-78
2022/09/13 10:48:46;;;;;;;1.75;0.63;;;;;;;21.64;48.77;100748.00;6307847;28;20787;-79
2022/09/13 10:52:33;;;;;;;4.88;4.43;;;;;;;22.02;48.00;100747.19;6292266;28;20600;-78
2022/09/13 10:55:55;;;;;;;1.90;0.70;;;;;;;22.14;48.34;100739.13;6299435;28;20234;-79
2022/09/13 10:59:21;;;;;;;1.38;1.02;;;;;;;22.47;47.36;100739.88;6301332;28;20231;-79
2022/09/13 11:02:55;;;;;;;2.30;0.65;;;;;;;28.45;36.70;100724.56;6311722;28;20237;-80
2022/09/13 11:06:26;;;;;;;1.75;0.82;;;;;;;29.94;30.94;100725.66;6310233;28;20258;-80
2022/09/13 11:09:52;;;;;;;3.42;1.55;;;;;;;32.27;27.81;100717.69;6306663;28;20241;-81
2022/09/13 11:13:25;;;;;;;0.90;0.70;;;;;;;27.36;34.30;100732.78;6304521;28;20226;-81
2022/09/13 11:16:59;;;;;;;1.02;0.55;;;;;;;25.91;38.16;100725.75;6301511;28;20233;-83
2022/09/13 11:20:36;;;;;;;2.00;0.52;;;;;;;24.88;40.80;100729.88;6311188;28;20471;-82
2022/09/13 11:24:42;;;;;;;2.17;1.02;;;;;;;23.63;43.32;100731.22;6293850;28;20609;-81
2022/09/13 11:28:15;;;;;;;3.28;0.55;;;;;;;22.08;47.18;100729.00;6272112;28;20628;-80
2022/09/13 11:31:47;;;;;;;1.33;0.60;;;;;;;22.87;45.90;100730.44;6298171;28;20250;-82
2022/09/13 11:35:24;;;;;;;2.05;0.85;;;;;;;22.04;47.56;100731.34;6296684;28;20329;-80
2022/09/13 11:38:57;;;;;;;1.15;0.70;;;;;;;22.65;45.89;100729.06;6291080;28;20234;-79
2022/09/13 11:42:33;;;;;;;0.55;0.47;;;;;;;28.92;34.42;100702.69;6296810;28;20235;-80
2022/09/13 11:46:06;;;;;;;2.88;0.40;;;;;;;27.79;34.31;100713.56;6297350;28;20743;-82
2022/09/13 11:50:02;;;;;;;1.63;0.45;;;;;;;26.05;37.52;100705.06;6296941;28;20338;-83
2022/09/13 11:53:51;;;;;;;3.00;0.70;;;;;;;23.98;41.85;100708.63;6296679;28;20611;-82
2022/09/13 11:57:18;;;;;;;3.05;0.47;;;;;;;22.99;44.23;100714.06;6300301;28;20238;-80
2022/09/13 12:00:48;;;;;;;3.30;1.17;;;;;;;22.69;45.72;100710.22;6308083;28;20537;-82
2022/09/13 12:04:17;;;;;;;1.42;0.60;;;;;;;22.59;45.10;100709.84;6298122;28;20321;-84
2022/09/13 12:07:43;;;;;;;1.50;0.85;;;;;;;23.89;42.31;100710.84;6298458;28;20226;-82
2022/09/13 12:11:11;;;;;;;0.60;0.60;;;;;;;22.68;44.29;100717.63;6304105;28;21026;-81
2022/09/13 12:14:41;;;;;;;1.75;1.15;;;;;;;21.83;46.82;100709.63;6299027;28;20593;-82
2022/09/13 12:18:07;;;;;;;6.40;0.93;;;;;;;21.98;47.28;100707.50;6300713;28;20218;-80
2022/09/13 12:21:32;;;;;;;1.52;0.80;;;;;;;26.32;38.00;100700.75;6294993;28;20235;-82
2022/09/13 12:24:56;;;;;;;0.47;0.47;;;;;;;24.76;39.99;100698.66;6309341;28;20226;-81
2022/09/13 12:28:26;;;;;;;2.85;1.77;;;;;;;22.98;44.01;100713.25;6298152;28;21477;-80
2022/09/13 12:31:47;;;;;;;1.00;0.43;;;;;;;26.18;37.73;100696.53;6300268;28;20222;-80
2022/09/13 12:35:14;;;;;;;1.02;0.93;;;;;;;25.38;40.36;100700.91;6299194;28;20239;-80
2022/09/13 12:38:54;;;;;;;2.58;0.50;;;;;;;26.16;37.71;100712.53;6299792;28;20589;-83
2022/09/13 12:42:32;;;;;;;2.58;0.60;;;;;;;23.26;44.29;100721.06;6303696;28;20675;-80
2022/09/13 12:46:19;;;;;;;1.42;0.70;;;;;;;22.92;45.85;100727.03;6297484;28;20225;-80
2022/09/13 12:50:10;;;;;;;1.98;1.05;;;;;;;22.51;47.24;100723.81;6299897;28;22321;-81
2022/09/13 12:54:04;;;;;;;2.63;0.60;;;;;;;22.18;48.38;100726.66;6295853;28;20726;-82
2022/09/13 12:57:35;;;;;;;2.15;0.75;;;;;;;22.46;47.82;100720.88;6279813;28;20239;-80
2022/09/13 13:01:14;;;;;;;0.50;0.50;;;;;;;21.55;50.28;100706.22;6292754;28;20953;-81
2022/09/13 13:04:36;;;;;;;2.47;0.90;;;;;;;22.10;49.50;100708.50;6304020;28;20658;-83
2022/09/13 13:08:01;;;;;;;2.35;0.68;;;;;;;22.72;48.24;100705.13;6298863;28;20227;-79
2022/09/13 13:11:24;;;;;;;2.75;0.90;;;;;;;25.70;41.03;100712.53;6292609;28;20227;-80
2022/09/13 13:14:52;;;;;;;2.47;0.95;;;;;;;28.68;34.96;100692.16;6298584;28;20330;-81
2022/09/13 13:18:26;;;;;;;2.22;1.70;;;;;;;29.42;33.95;100702.41;6299856;28;20595;-81
2022/09/13 13:21:47;;;;;;;1.90;0.73;;;;;;;25.71;40.39;100712.28;6297909;28;20230;-81
2022/09/13 13:25:32;;;;;;;2.67;0.80;;;;;;;23.40;45.38;100711.72;6298491;28;20333;-79
2022/09/13 13:29:15;;;;;;;2.50;0.80;;;;;;;22.68;48.41;100712.13;6298885;28;20268;-82
2022/09/13 13:32:37;;;;;;;3.25;0.85;;;;;;;22.08;48.78;100723.50;6302827;28;20256;-80
2022/09/13 13:36:23;;;;;;;2.47;0.68;;;;;;;21.97;49.40;100719.50;6296640;28;20223;-82
2022/09/13 13:39:46;;;;;;;0.80;0.80;;;;;;;22.15;49.69;100711.44;6291185;28;20328;-80
2022/09/13 13:43:30;;;;;;;1.60;1.50;;;;;;;21.81;49.54;100711.69;6299529;28;20599;-81
2022/09/13 13:46:53;;;;;;;1.95;0.68;;;;;;;21.46;50.20;100710.25;6298023;28;20266;-80
2022/09/13 13:50:17;;;;;;;1.15;1.05;;;;;;;21.16;51.17;100709.78;6297646;28;20242;-84
2022/09/13 13:53:42;;;;;;;1.45;0.45;;;;;;;20.67;53.41;100714.72;6292941;28;20230;-80
2022/09/13 13:57:17;;;;;;;2.80;0.82;;;;;;;20.99;54.01;100713.09;6295984;28;20238;-82
2022/09/13 14:00:47;;;;;;;1.83;1.02;;;;;;;21.02;55.14;100726.41;6293883;28;20226;-82
2022/09/13 14:04:37;;;;;;;2.15;1.02;;;;;;;24.71;46.24;100704.84;6293260;28;20715;-83
2022/09/13 14:08:25;;;;;;;1.05;0.90;;;;;;;26.49;40.44;100709.97;6291471;27;20251;-81
2022/09/13 14:12:04;;;;;;;1.45;1.00;;;;;;;22.60;49.84;100728.03;6289452;28;20226;-82
2022/09/13 14:15:39;;;;;;;2.95;0.68;;;;;;;22.67;50.14;100731.59;6293995;28;20222;-83
2022/09/13 14:19:22;;;;;;;1.50;0.70;;;;;;;23.00;48.81;100733.13;6293289;28;20985;-82
2022/09/13 14:22:44;;;;;;;3.30;0.90;;;;;;;21.52;52.77;100736.84;6289074;28;20247;-84
2022/09/13 14:26:11;;;;;;;0.40;0.40;;;;;;;20.87;54.04;100739.41;6292836;28;20223;-85
2022/09/13 14:29:33;;;;;;;2.80;1.48;;;;;;;23.41;48.46;100731.78;6282182;28;20230;-84
2022/09/13 14:32:57;;;;;;;1.23;0.60;;;;;;;23.17;48.46;100736.19;6299092;28;20230;-84
2022/09/13 14:36:21;;;;;;;5.43;1.10;;;;;;;21.73;52.62;100731.13;6295294;28;20238;-82
2022/09/13 14:39:54;;;;;;;1.17;0.60;;;;;;;23.37;49.61;100723.16;6292877;28;20238;-83
2022/09/13 14:43:16;;;;;;;2.50;1.95;;;;;;;24.42;46.35;100709.25;6293352;28;20226;-82
2022/09/13 14:46:42;;;;;;;4.13;1.27;;;;;;;23.96;47.17;100727.31;6292887;28;20717;-83
2022/09/13 14:50:08;;;;;;;1.42;0.80;;;;;;;23.25;47.93;100719.41;6284617;28;20230;-83
2022/09/13 14:53:32;;;;;;;1.40;1.13;;;;;;;21.99;51.62;100727.53;6284618;28;22231;-84
2022/09/13 14:56:55;;;;;;;4.00;1.33;;;;;;;22.03;52.63;100720.53;6297666;27;20231;-81
2022/09/13 15:00:19;;;;;;;2.55;1.00;;;;;;;22.05;51.16;100713.78;6293679;28;20363;-79
2022/09/13 15:03:43;;;;;;;2.20;1.13;;;;;;;22.60;50.14;100715.13;6292015;28;20222;-81
2022/09/13 15:07:18;;;;;;;2.05;0.90;;;;;;;22.74;48.88;100713.16;6293322;28;20235;-81
2022/09/13 15:10:43;;;;;;;4.55;1.05;;;;;;;;;;6290855;28;20242;-81
2022/09/13 15:14:25;;;;;;;2.20;0.60;;;;;;;22.31;49.47;100712.03;6287503;28;20234;-82
2022/09/13 15:17:54;;;;;;;2.50;0.93;;;;;;;21.95;50.57;100721.63;6292721;28;20296;-83
2022/09/13 15:21:17;;;;;;;3.72;0.65;;;;;;;21.74;50.72;100719.09;6285395;28;20219;-78
2022/09/13 15:24:44;;;;;;;1.00;0.70;;;;;;;22.10;50.67;100716.75;6287443;28;20227;-80
2022/09/13 15:28:06;;;;;;;3.50;0.98;;;;;;;22.35;49.29;100718.78;6289710;28;20216;-81
2022/09/13 15:31:32;;;;;;;1.33;0.60;;;;;;;22.47;50.59;100717.03;6279881;28;20724;-76
2022/09/13 15:34:58;;;;;;;0.90;0.73;;;;;;;22.24;50.27;100717.53;6275322;28;20227;-75
2022/09/13 15:38:29;;;;;;;2.45;1.48;;;;;;;22.23;50.33;100718.63;6285363;28;20226;-74
2022/09/13 15:41:55;;;;;;;9.95;1.27;;;;;;;22.03;51.34;100720.53;6281213;28;20230;-75
2022/09/13 15:45:17;;;;;;;4.93;0.80;;;;;;;21.89;50.49;100727.97;6289036;28;20243;-75
2022/09/13 15:48:38;;;;;;;4.30;1.55;;;;;;;21.58;51.06;100725.00;6280590;28;20231;-74
2022/09/13 15:52:00;;;;;;;3.53;1.52;;;;;;;21.05;52.37;100735.06;6286707;28;20259;-73
2022/09/13 15:55:23;;;;;;;2.70;1.20;;;;;;;20.68;53.63;100749.25;6294290;28;20321;-74
2022/09/13 15:58:44;;;;;;;4.72;0.93;;;;;;;20.59;54.23;100736.78;6286476;28;20238;-74
2022/09/13 16:02:18;;;;;;;2.25;0.77;;;;;;;20.58;53.27;100738.69;6297905;27;20226;-74
2022/09/13 16:05:41;;;;;;;2.45;0.90;;;;;;;20.36;54.69;100736.28;6286464;28;20706;-70